createdAt,value
2022-10-06T00:01:15.770Z,101801.81
2022-10-06T00:03:45.131Z,101808.16
2022-10-06T00:06:16.698Z,101818.97
2022-10-06T00:08:47.013Z,101820.38
2022-10-06T00:11:17.315Z,101823.34
2022-10-06T00:13:47.373Z,101834.41
2022-10-06T00:16:21.647Z,101831.84
2022-10-06T00:18:50.126Z,101843.53
2022-10-06T00:21:18.379Z,101847.44
2022-10-06T00:23:46.891Z,101844.16
2022-10-06T00:26:17.063Z,101847.28
2022-10-06T00:28:48.534Z,101851.63
2022-10-06T00:31:19.495Z,101855.84
2022-10-06T00:33:49.847Z,101870.06
2022-10-06T00:36:18.329Z,101867.91
2022-10-06T00:38:46.506Z,101876.56
2022-10-06T00:41:17.593Z,101866.03
2022-10-06T00:43:53.044Z,101873.91
2022-10-06T00:46:35.673Z,101886.72
2022-10-06T00:49:13.769Z,101897.88
2022-10-06T00:51:48.531Z,101895.31
2022-10-06T00:54:17.787Z,101898.56
2022-10-06T00:56:46.323Z,101912.19
2022-10-06T00:59:18.816Z,101902.97
2022-10-06T01:01:55.495Z,101910.13
2022-10-06T01:04:25.603Z,101912.38
2022-10-06T01:06:57.776Z,101920.66
2022-10-06T01:09:26.260Z,101925.78
2022-10-06T01:11:58.671Z,101931.72
2022-10-06T01:14:29.426Z,101924.97
2022-10-06T01:17:02.242Z,101930.50
2022-10-06T01:19:40.774Z,101935.59
2022-10-06T01:22:11.704Z,101934.16
2022-10-06T01:24:41.869Z,101943.88
2022-10-06T01:27:12.910Z,101939.53
2022-10-06T01:29:41.983Z,101940.56
2022-10-06T01:32:10.594Z,101950.56
2022-10-06T01:34:38.848Z,101948.25
2022-10-06T01:37:07.015Z,101953.69
2022-10-06T01:39:35.657Z,101949.50
2022-10-06T01:42:05.641Z,101949.53
2022-10-06T01:44:33.813Z,101953.66
2022-10-06T01:47:02.098Z,101955.00
2022-10-06T01:49:30.313Z,101958.84
2022-10-06T01:51:58.573Z,101964.63
2022-10-06T01:54:27.057Z,101964.41
2022-10-06T01:56:55.324Z,101964.00
2022-10-06T01:59:25.506Z,101963.16
2022-10-06T02:01:53.981Z,101974.84
2022-10-06T02:04:22.241Z,101984.91
2022-10-06T02:06:51.664Z,101976.84
2022-10-06T02:09:20.117Z,101976.19
2022-10-06T02:11:48.710Z,101981.97
2022-10-06T02:14:18.056Z,101986.50
2022-10-06T02:16:48.428Z,101980.97
2022-10-06T02:19:17.358Z,101998.66
2022-10-06T02:21:45.857Z,101996.97
2022-10-06T02:24:14.541Z,102005.44
2022-10-06T02:26:42.729Z,102009.38
2022-10-06T02:29:11.188Z,102005.25
2022-10-06T02:31:39.723Z,101997.13
2022-10-06T02:34:10.119Z,102012.78
2022-10-06T02:36:39.015Z,102019.72
2022-10-06T02:39:07.480Z,102018.41
2022-10-06T02:41:35.973Z,102033.66
2022-10-06T02:44:04.167Z,102033.53
2022-10-06T02:46:32.598Z,102029.91
2022-10-06T02:49:01.107Z,102040.63
2022-10-06T02:51:33.930Z,102035.19
2022-10-06T02:54:02.419Z,102041.97
2022-10-06T02:56:30.989Z,102037.97
2022-10-06T02:58:59.485Z,102052.63
2022-10-06T03:01:29.707Z,102050.31
2022-10-06T03:03:58.261Z,102051.31
2022-10-06T03:06:28.809Z,102061.13
2022-10-06T03:09:00.750Z,102067.56
2022-10-06T03:11:31.524Z,102078.13
2022-10-06T03:14:00.229Z,102080.22
2022-10-06T03:16:32.008Z,102073.50
2022-10-06T03:19:01.171Z,102084.63
2022-10-06T03:21:31.772Z,102091.09
2022-10-06T03:24:01.999Z,102096.22
2022-10-06T03:26:34.198Z,102087.34
2022-10-06T03:29:02.928Z,102101.28
2022-10-06T03:31:31.609Z,102100.94
2022-10-06T03:34:00.445Z,102106.47
2022-10-06T03:36:32.395Z,102113.03
2022-10-06T03:39:03.081Z,102119.31
2022-10-06T03:41:33.290Z,102126.34
2022-10-06T03:44:02.190Z,102132.41
2022-10-06T03:46:32.466Z,102138.81
2022-10-06T03:49:01.768Z,102139.16
2022-10-06T03:51:34.130Z,102143.31
2022-10-06T03:54:04.431Z,102156.69
2022-10-06T03:56:35.277Z,102157.34
2022-10-06T03:59:05.979Z,102164.53
2022-10-06T04:01:36.620Z,102159.00
2022-10-06T04:04:06.402Z,102172.28
2022-10-06T04:06:37.234Z,102182.19
2022-10-06T04:09:14.037Z,102178.16
2022-10-06T04:11:45.112Z,102177.31
2022-10-06T04:14:15.837Z,102183.19
2022-10-06T04:16:46.138Z,102195.22
2022-10-06T04:19:17.148Z,102198.00
2022-10-06T04:21:47.742Z,102203.84
2022-10-06T04:24:18.517Z,102199.44
2022-10-06T04:26:48.954Z,102205.94
2022-10-06T04:29:17.646Z,102201.09
2022-10-06T04:31:47.022Z,102201.66
2022-10-06T04:34:15.735Z,102198.06
2022-10-06T04:36:44.752Z,102206.97
2022-10-06T04:39:14.195Z,102212.03
2022-10-06T04:41:46.646Z,102219.13
2022-10-06T04:44:15.149Z,102219.84
2022-10-06T04:46:44.806Z,102241.22
2022-10-06T04:49:19.670Z,102240.38
2022-10-06T04:51:49.993Z,102243.34
2022-10-06T04:54:18.771Z,102242.72
2022-10-06T04:56:48.648Z,102241.97
2022-10-06T04:59:17.111Z,102251.75
2022-10-06T05:01:45.404Z,102256.84
2022-10-06T05:04:13.649Z,102254.09
2022-10-06T05:06:43.536Z,102262.66
2022-10-06T05:09:13.771Z,102267.72
2022-10-06T05:11:42.135Z,102271.56
2022-10-06T05:14:11.773Z,102274.03
2022-10-06T05:16:40.140Z,102275.16
2022-10-06T05:19:08.406Z,102284.41
2022-10-06T05:21:37.142Z,102286.81
2022-10-06T05:24:05.940Z,102291.63
2022-10-06T05:26:36.211Z,102295.44
2022-10-06T05:29:05.211Z,102298.75
2022-10-06T05:31:39.081Z,102291.13
2022-10-06T05:34:08.191Z,102308.56
2022-10-06T05:36:36.761Z,102304.19
2022-10-06T05:39:05.344Z,102306.75
2022-10-06T05:41:34.954Z,102317.56
2022-10-06T05:44:03.264Z,102322.41
2022-10-06T05:46:34.620Z,102319.13
2022-10-06T05:49:05.205Z,102330.88
2022-10-06T05:51:36.329Z,102332.78
2022-10-06T05:54:05.164Z,102347.66
2022-10-06T05:56:35.272Z,102350.69
2022-10-06T05:59:04.562Z,102345.38
2022-10-06T06:01:37.049Z,102349.84
2022-10-06T06:04:08.037Z,102363.25
2022-10-06T06:06:38.411Z,102362.41
2022-10-06T06:09:09.121Z,102359.41
2022-10-06T06:11:40.573Z,102372.38
2022-10-06T06:14:11.123Z,102370.13
2022-10-06T06:16:41.239Z,102371.34
2022-10-06T06:19:11.685Z,102379.84
2022-10-06T06:21:40.685Z,102375.50
2022-10-06T06:24:09.194Z,102376.94
2022-10-06T06:26:38.618Z,102382.91
2022-10-06T06:29:07.296Z,102393.91
2022-10-06T06:31:38.408Z,102395.28
2022-10-06T06:34:08.817Z,102392.63
2022-10-06T06:36:41.034Z,102395.16
2022-10-06T06:39:11.759Z,102406.88
2022-10-06T06:41:41.986Z,102408.50
2022-10-06T06:44:12.143Z,102411.38
2022-10-06T06:46:43.267Z,102417.94
2022-10-06T06:49:12.942Z,102423.59
2022-10-06T06:51:43.196Z,102431.91
2022-10-06T06:54:12.960Z,102438.34
2022-10-06T06:56:42.436Z,102436.19
2022-10-06T06:59:12.071Z,102439.88
2022-10-06T07:01:45.708Z,102440.97
2022-10-06T07:04:17.589Z,102441.38
2022-10-06T07:06:57.980Z,102451.03
2022-10-06T07:09:27.106Z,102456.97
2022-10-06T07:11:56.104Z,102460.13
2022-10-06T07:14:25.135Z,102462.78
2022-10-06T07:17:10.636Z,102466.25
2022-10-06T07:19:57.556Z,102468.75
2022-10-06T07:22:46.643Z,102472.09
2022-10-06T07:25:25.690Z,102482.13
2022-10-06T07:27:55.777Z,102488.69
2022-10-06T07:30:26.663Z,102491.28
2022-10-06T07:32:55.931Z,102490.88
2022-10-06T07:35:26.457Z,102493.66
2022-10-06T07:37:54.801Z,102501.59
2022-10-06T07:40:23.075Z,102516.44
2022-10-06T07:42:52.422Z,102513.53
2022-10-06T07:45:42.454Z,102509.38
2022-10-06T07:48:14.316Z,102524.50
2022-10-06T07:50:45.624Z,102518.00
2022-10-06T07:53:14.089Z,102522.50
2022-10-06T07:55:46.345Z,102525.06
2022-10-06T07:58:16.417Z,102535.66
2022-10-06T08:00:45.775Z,102538.09
2022-10-06T08:03:18.200Z,102533.00
2022-10-06T08:05:49.829Z,102547.72
2022-10-06T08:08:18.814Z,102538.97
2022-10-06T08:10:54.854Z,102542.50
2022-10-06T08:13:23.516Z,102542.16
2022-10-06T08:15:52.345Z,102553.84
2022-10-06T08:18:44.211Z,102560.66
2022-10-06T08:21:16.814Z,102554.31
2022-10-06T08:23:46.519Z,102564.91
2022-10-06T08:26:16.688Z,102563.91
2022-10-06T08:28:46.808Z,102570.16
2022-10-06T08:31:16.309Z,102565.97
2022-10-06T08:33:45.719Z,102566.72
2022-10-06T08:36:17.922Z,102577.75
2022-10-06T08:38:50.079Z,102575.38
2022-10-06T08:41:21.108Z,102588.69
2022-10-06T08:43:57.029Z,102586.94
2022-10-06T08:46:31.261Z,102589.34
2022-10-06T08:49:02.419Z,102580.94
2022-10-06T08:51:51.598Z,102584.63
2022-10-06T08:54:30.159Z,102581.41
2022-10-06T08:57:11.238Z,102583.94
2022-10-06T08:59:39.485Z,102587.75
2022-10-06T09:02:25.856Z,102588.41
2022-10-06T09:04:54.179Z,102593.72
2022-10-06T09:07:32.050Z,102593.91
2022-10-06T09:10:19.386Z,102608.94
2022-10-06T09:12:53.697Z,102607.56
2022-10-06T09:15:35.173Z,102611.72
2022-10-06T09:18:13.942Z,102614.63
2022-10-06T09:20:51.250Z,102623.47
2022-10-06T09:23:42.769Z,102621.41
2022-10-06T09:26:14.236Z,102633.53
2022-10-06T09:28:46.471Z,102633.53
2022-10-06T09:31:23.909Z,102635.94
2022-10-06T09:33:55.589Z,102633.38
2022-10-06T09:36:24.205Z,102627.56
2022-10-06T09:38:56.160Z,102641.44
2022-10-06T09:41:29.588Z,102635.31
2022-10-06T09:44:00.326Z,102642.81
2022-10-06T09:46:34.796Z,102633.03
2022-10-06T09:49:18.850Z,102634.00
2022-10-06T09:52:14.974Z,102645.78
2022-10-06T09:54:45.625Z,102637.63
2022-10-06T09:57:21.383Z,102649.19
2022-10-06T09:59:50.087Z,102648.47
2022-10-06T10:02:36.941Z,102651.00
2022-10-06T10:05:19.947Z,102650.66
2022-10-06T10:08:01.304Z,102649.25
2022-10-06T10:10:35.467Z,102643.72
2022-10-06T10:13:05.016Z,102641.78
2022-10-06T10:15:38.352Z,102644.06
2022-10-06T10:18:16.865Z,102651.38
2022-10-06T10:20:55.800Z,102650.09
2022-10-06T10:23:31.714Z,102650.28
2022-10-06T10:26:27.473Z,102649.53
2022-10-06T10:29:33.077Z,102648.78
2022-10-06T10:32:12.251Z,102653.34
2022-10-06T10:35:04.264Z,102645.03
2022-10-06T10:37:43.062Z,102646.13
2022-10-06T10:40:33.933Z,102650.88
2022-10-06T10:43:24.212Z,102649.41
2022-10-06T10:45:58.305Z,102654.91
2022-10-06T10:48:34.820Z,102656.47
2022-10-06T10:51:11.238Z,102650.66
2022-10-06T10:53:48.616Z,102662.81
2022-10-06T10:56:20.812Z,102654.06
2022-10-06T10:58:55.301Z,102660.13
2022-10-06T11:01:33.589Z,102655.41
2022-10-06T11:04:02.461Z,102654.66
2022-10-06T11:07:03.508Z,102652.50
2022-10-06T11:09:42.264Z,102654.69
2022-10-06T11:12:23.787Z,102643.72
2022-10-06T11:14:59.640Z,102643.47
2022-10-06T11:17:44.524Z,102645.63
2022-10-06T11:20:40.232Z,102657.56
2022-10-06T11:23:30.097Z,102652.25
2022-10-06T11:26:10.782Z,102661.03
2022-10-06T11:28:45.340Z,102659.22
2022-10-06T11:31:29.595Z,102665.81
2022-10-06T11:34:01.659Z,102657.50
2022-10-06T11:36:45.796Z,102663.63
2022-10-06T11:39:25.034Z,102662.00
2022-10-06T11:42:04.197Z,102661.38
2022-10-06T11:44:40.333Z,102660.59
2022-10-06T11:47:15.672Z,102656.75
2022-10-06T11:49:53.907Z,102648.38
2022-10-06T11:52:55.939Z,102654.88
2022-10-06T11:55:26.533Z,102654.78
2022-10-06T12:01:05.922Z,102636.25
2022-10-06T12:04:14.395Z,102644.69
2022-10-06T12:07:02.980Z,102644.88
2022-10-06T12:09:52.463Z,102637.41
2022-10-06T12:13:06.206Z,102635.88
2022-10-06T12:17:09.303Z,102638.31
2022-10-06T12:19:21.441Z,102631.84
2022-10-06T12:22:01.496Z,102642.53
2022-10-06T12:24:41.242Z,102630.19
2022-10-06T12:27:43.950Z,102637.28
2022-10-06T12:30:24.282Z,102639.00
2022-10-06T12:32:55.838Z,102629.41
2022-10-06T12:35:33.266Z,102620.66
2022-10-06T12:38:04.927Z,102624.47
2022-10-06T12:40:49.241Z,102625.13
2022-10-06T12:43:33.479Z,102634.09
2022-10-06T12:46:07.516Z,102628.09
2022-10-06T12:48:42.548Z,102621.44
2022-10-06T12:51:27.939Z,102618.78
2022-10-06T12:54:07.234Z,102615.69
2022-10-06T12:56:38.514Z,102623.72
2022-10-06T12:59:21.414Z,102623.75
2022-10-06T13:01:52.998Z,102624.97
2022-10-06T13:04:43.051Z,102610.97
2022-10-06T13:07:18.574Z,102612.22
2022-10-06T13:09:50.062Z,102616.44
2022-10-06T13:12:32.261Z,102608.78
2022-10-06T13:15:22.184Z,102620.13
2022-10-06T13:17:54.461Z,102606.03
2022-10-06T13:20:32.194Z,102602.88
2022-10-06T13:23:07.522Z,102602.50
2022-10-06T13:25:44.373Z,102602.81
2022-10-06T13:28:45.527Z,102604.44
2022-10-06T13:31:21.043Z,102600.31
2022-10-06T13:33:53.581Z,102601.09
2022-10-06T13:36:23.617Z,102604.03
2022-10-06T13:38:53.515Z,102590.06
2022-10-06T13:41:27.975Z,102593.84
2022-10-06T13:44:00.595Z,102592.75
2022-10-06T13:46:32.120Z,102592.50
2022-10-06T13:49:04.594Z,102599.78
2022-10-06T13:51:34.246Z,102597.22
2022-10-06T13:54:23.399Z,102591.91
2022-10-06T13:56:51.754Z,102596.31
2022-10-06T13:59:38.438Z,102599.19
2022-10-06T14:02:25.228Z,102603.09
2022-10-06T14:05:37.861Z,102600.97
2022-10-06T14:08:22.023Z,102597.75
2022-10-06T14:10:55.398Z,102603.06
2022-10-06T14:13:27.350Z,102602.75
2022-10-06T14:15:59.522Z,102596.41
2022-10-06T14:18:34.100Z,102597.16
2022-10-06T14:21:19.093Z,102595.91
2022-10-06T14:23:51.585Z,102590.03
2022-10-06T14:26:26.341Z,102601.25
2022-10-06T14:28:55.644Z,102600.03
2022-10-06T14:31:26.845Z,102598.44
2022-10-06T14:33:57.099Z,102594.72
2022-10-06T14:36:28.224Z,102596.97
2022-10-06T14:38:58.552Z,102595.44
2022-10-06T14:41:30.213Z,102596.75
2022-10-06T14:44:02.105Z,102594.00
2022-10-06T14:46:31.116Z,102595.53
2022-10-06T14:49:00.265Z,102589.13
2022-10-06T14:51:30.058Z,102588.38
2022-10-06T14:54:01.695Z,102595.03
2022-10-06T14:56:34.665Z,102593.44
2022-10-06T14:59:06.378Z,102599.44
2022-10-06T15:01:36.902Z,102600.78
2022-10-06T15:04:09.839Z,102591.75
2022-10-06T15:06:55.681Z,102595.00
2022-10-06T15:09:24.732Z,102600.19
2022-10-06T15:11:54.935Z,102594.59
2022-10-06T15:14:24.009Z,102587.41
2022-10-06T15:16:54.172Z,102588.75
2022-10-06T15:19:22.379Z,102587.75
2022-10-06T15:21:51.147Z,102588.94
2022-10-06T15:24:20.551Z,102591.28
2022-10-06T15:27:06.894Z,102582.47
2022-10-06T15:29:36.504Z,102581.06
2022-10-06T15:32:07.171Z,102584.69
2022-10-06T15:34:37.558Z,102583.66
2022-10-06T15:37:06.667Z,102584.38
2022-10-06T15:39:37.968Z,102583.09
2022-10-06T15:42:08.026Z,102571.97
2022-10-06T15:44:38.222Z,102580.47
2022-10-06T15:47:07.606Z,102579.78
2022-10-06T15:49:40.417Z,102585.50
2022-10-06T15:52:12.121Z,102584.47
2022-10-06T15:54:41.957Z,102574.00
2022-10-06T15:57:17.955Z,102582.88
2022-10-06T15:59:50.150Z,102572.44
2022-10-06T16:02:20.392Z,102578.34
2022-10-06T16:05:16.819Z,102572.06
2022-10-06T16:07:45.029Z,102576.84
2022-10-06T16:10:13.606Z,102585.09
2022-10-06T16:12:41.872Z,102582.88
2022-10-06T16:15:12.133Z,102575.91
2022-10-06T16:17:40.407Z,102579.38
2022-10-06T16:20:11.533Z,102572.94
2022-10-06T16:22:40.040Z,102579.81
2022-10-06T16:25:09.354Z,102583.31
2022-10-06T16:27:37.624Z,102589.69
2022-10-06T16:30:07.720Z,102593.25
2022-10-06T16:32:37.607Z,102584.25
2022-10-06T16:35:07.308Z,102594.81
2022-10-06T16:37:35.501Z,102585.94
2022-10-06T16:40:03.757Z,102580.19
2022-10-06T16:42:31.944Z,102583.78
2022-10-06T16:45:00.127Z,102591.84
2022-10-06T16:47:28.334Z,102582.38
2022-10-06T16:49:57.945Z,102579.25
2022-10-06T16:52:26.137Z,102578.06
2022-10-06T16:54:56.099Z,102580.59
2022-10-06T16:57:24.887Z,102590.06
2022-10-06T16:59:53.029Z,102586.31
2022-10-06T17:02:21.504Z,102588.47
2022-10-06T17:04:49.985Z,102604.59
2022-10-06T17:07:19.871Z,102592.75
2022-10-06T17:10:15.277Z,102600.28
2022-10-06T17:12:36.683Z,102599.91
2022-10-06T17:15:05.515Z,102602.16
2022-10-06T17:17:33.728Z,102599.13
2022-10-06T17:20:01.896Z,102592.34
2022-10-06T17:22:31.676Z,102597.13
2022-10-06T17:25:00.529Z,102596.72
2022-10-06T17:27:30.307Z,102594.16
2022-10-06T17:29:58.445Z,102592.22
2022-10-06T17:32:26.732Z,102592.16
2022-10-06T17:34:55.294Z,102592.53
2022-10-06T17:37:23.467Z,102586.41
2022-10-06T17:39:52.985Z,102595.69
2022-10-06T17:42:21.183Z,102589.19
2022-10-06T17:44:49.360Z,102599.06
2022-10-06T17:47:17.556Z,102594.16
2022-10-06T17:49:45.898Z,102589.94
2022-10-06T17:52:14.095Z,102596.13
2022-10-06T17:54:44.695Z,102598.28
2022-10-06T17:57:14.389Z,102599.59
2022-10-06T17:59:42.595Z,102590.50
2022-10-06T18:02:13.452Z,102589.06
2022-10-06T18:04:41.789Z,102589.50
2022-10-06T18:07:10.185Z,102592.47
2022-10-06T18:09:38.413Z,102597.28
2022-10-06T18:12:07.655Z,102590.22
2022-10-06T18:14:37.226Z,102586.41
2022-10-06T18:17:05.977Z,102589.91
2022-10-06T18:19:36.614Z,102602.16
2022-10-06T18:22:09.866Z,102587.34
2022-10-06T18:24:39.136Z,102594.94
2022-10-06T18:27:08.196Z,102594.94
2022-10-06T18:29:39.738Z,102591.94
2022-10-06T18:33:16.539Z,102596.66
2022-10-06T18:37:45.409Z,102588.13
2022-10-06T18:40:14.942Z,102586.25
2022-10-06T18:42:43.123Z,102596.34
2022-10-06T18:45:34.246Z,102592.22
2022-10-06T18:48:22.790Z,102595.25
2022-10-06T18:51:01.179Z,102591.63
2022-10-06T18:53:31.110Z,102590.78
2022-10-06T18:55:59.319Z,102584.72
2022-10-06T18:58:27.475Z,102593.66
2022-10-06T19:00:57.150Z,102586.41
2022-10-06T19:03:28.340Z,102592.16
2022-10-06T19:05:56.542Z,102592.44
2022-10-06T19:08:24.794Z,102591.53
2022-10-06T19:11:06.884Z,102597.13
2022-10-06T19:13:35.086Z,102601.06
2022-10-06T19:16:04.735Z,102602.38
2022-10-06T19:18:37.122Z,102602.75
2022-10-06T19:21:09.465Z,102591.22
2022-10-06T19:23:41.310Z,102596.59
2022-10-06T19:26:12.553Z,102594.78
2022-10-06T19:28:41.234Z,102595.78
2022-10-06T19:31:18.695Z,102594.75
2022-10-06T19:33:47.892Z,102594.97
2022-10-06T19:36:17.992Z,102594.13
2022-10-06T19:38:46.816Z,102587.09
2022-10-06T19:41:32.620Z,102589.50
2022-10-06T19:44:02.837Z,102591.59
2022-10-06T19:46:32.447Z,102595.63
2022-10-06T19:49:05.563Z,102594.78
2022-10-06T19:51:35.274Z,102597.56
2022-10-06T19:54:05.049Z,102593.47
2022-10-06T19:56:33.278Z,102587.97
2022-10-06T19:59:02.177Z,102601.59
2022-10-06T20:01:32.492Z,102583.13
2022-10-06T20:04:03.512Z,102589.50
2022-10-06T20:06:32.176Z,102585.84
2022-10-06T20:09:05.636Z,102588.31
2022-10-06T20:11:35.976Z,102591.28
2022-10-06T20:14:06.118Z,102591.56
2022-10-06T20:16:36.722Z,102601.41
2022-10-06T20:19:05.445Z,102599.47
2022-10-06T20:21:35.446Z,102595.66
2022-10-06T20:24:06.673Z,102594.53
2022-10-06T20:26:38.429Z,102592.78
2022-10-06T20:29:10.142Z,102587.16
2022-10-06T20:31:43.395Z,102597.91
2022-10-06T20:34:17.387Z,102593.88
2022-10-06T20:36:45.979Z,102599.16
2022-10-06T20:39:36.727Z,102598.06
2022-10-06T20:42:09.454Z,102598.56
2022-10-06T20:44:42.343Z,102594.75
2022-10-06T20:47:12.512Z,102592.56
2022-10-06T20:49:42.438Z,102595.81
2022-10-06T20:52:14.260Z,102587.47
2022-10-06T20:54:42.808Z,102593.50
2022-10-06T20:57:11.127Z,102587.72
2022-10-06T20:59:39.427Z,102593.50
2022-10-06T21:02:08.138Z,102588.59
2022-10-06T21:04:37.790Z,102588.44
2022-10-06T21:07:06.396Z,102589.91
2022-10-06T21:09:34.879Z,102581.13
2022-10-06T21:12:05.208Z,102574.94
2022-10-06T21:14:34.206Z,102578.34
2022-10-06T21:17:02.662Z,102572.81
2022-10-06T21:19:31.584Z,102575.84
2022-10-06T21:22:01.386Z,102567.53
2022-10-06T21:24:29.646Z,102567.53
2022-10-06T21:26:58.406Z,102567.50
2022-10-06T21:29:27.385Z,102568.59
2022-10-06T21:31:55.674Z,102562.81
2022-10-06T21:34:24.012Z,102565.25
2022-10-06T21:36:52.411Z,102565.66
2022-10-06T21:39:22.105Z,102562.03
2022-10-06T21:41:50.421Z,102560.94
2022-10-06T21:44:19.855Z,102555.22
2022-10-06T21:46:50.205Z,102559.00
2022-10-06T21:49:20.676Z,102561.22
2022-10-06T21:51:51.411Z,102552.88
2022-10-06T21:54:21.878Z,102554.81
2022-10-06T21:56:51.560Z,102547.75
2022-10-06T21:59:20.088Z,102544.53
2022-10-06T22:01:49.952Z,102545.25
2022-10-06T22:04:18.661Z,102542.47
2022-10-06T22:06:50.101Z,102530.84
2022-10-06T22:09:21.759Z,102537.31
2022-10-06T22:11:50.805Z,102528.47
2022-10-06T22:14:20.318Z,102521.88
2022-10-06T22:16:49.049Z,102529.09
2022-10-06T22:19:18.036Z,102529.31
2022-10-06T22:21:49.121Z,102520.78
2022-10-06T22:24:21.851Z,102522.66
2022-10-06T22:26:51.073Z,102527.63
2022-10-06T22:29:20.973Z,102526.44
2022-10-06T22:31:50.080Z,102528.06
2022-10-06T22:34:20.624Z,102525.03
2022-10-06T22:36:49.216Z,102520.31
2022-10-06T22:39:17.934Z,102506.72
2022-10-06T22:41:47.891Z,102509.19
2022-10-06T22:44:16.453Z,102508.91
2022-10-06T22:46:45.256Z,102506.69
2022-10-06T22:49:13.712Z,102506.63
2022-10-06T22:51:42.049Z,102501.50
2022-10-06T22:54:19.754Z,102503.50
2022-10-06T22:56:49.471Z,102504.34
2022-10-06T22:59:17.754Z,102489.19
2022-10-06T23:01:46.033Z,102493.44
2022-10-06T23:04:14.514Z,102487.25
2022-10-06T23:06:42.837Z,102483.63
2022-10-06T23:09:12.750Z,102485.56
2022-10-06T23:11:41.030Z,102481.91
2022-10-06T23:14:10.694Z,102475.91
2022-10-06T23:16:39.118Z,102477.25
2022-10-06T23:19:07.453Z,102469.06
2022-10-06T23:21:38.202Z,102466.09
2022-10-06T23:24:07.148Z,102478.91
2022-10-06T23:26:35.469Z,102471.13
2022-10-06T23:29:04.341Z,102471.16
2022-10-06T23:31:34.075Z,102467.91
2022-10-06T23:34:02.390Z,102462.34
2022-10-06T23:36:30.699Z,102463.44
2022-10-06T23:38:59.006Z,102464.50
2022-10-06T23:41:27.361Z,102462.34
2022-10-06T23:43:55.648Z,102465.56
2022-10-06T23:46:23.951Z,102457.91
2022-10-06T23:48:53.588Z,102452.72
2022-10-06T23:51:21.896Z,102456.78
2022-10-06T23:53:50.164Z,102445.69
2022-10-06T23:56:20.817Z,102451.50
2022-10-06T23:58:49.377Z,102447.22
